Últimos sismos

MagnitudMag. Fecha y hora Epicentro localización: latitud, longitud loc.: lat., long. ProfundidadProf.
4.3 2018-07-17    11:43:43 11 km al SUROESTE de PINOTEPA NACIONAL, OAX: 16.28°, -98.13° 13 km
4.1 2018-07-17    09:39:38 76 km al SUROESTE de COALCOMAN, MICH: 18.17°, -103.50° 5 km
5.1 2018-07-17    08:54:37 80 km al SUROESTE de COALCOMAN, MICH: 18.14°, -103.52° 5 km
4.2 2018-07-17    06:35:58 59 km al SUROESTE de PINOTEPA NACIONAL, OAX: 15.99°, -98.47° 12 km
4.3 2018-07-17    04:08:27 42 km al NOROESTE de BERRIOZABAL, CHIS: 17.15°, -93.42° 150 km
3.5 2018-07-16    13:58:40 44 km al OESTE de TECPAN, GRO: 17.18°, -101.04° 8 km
3.6 2018-07-16    13:22:01 99 km al SURESTE de SALINA CRUZ, OAX: 15.37°, -94.79° 15 km
3.3 2018-07-16    13:19:58 10 km al SUR de PINOTEPA NACIONAL, OAX: 16.26°, -98.08° 12 km
3.3 2018-07-16    12:50:49 84 km al SURESTE de SAN MARCOS, GRO: 16.14°, -98.99° 5 km
3.4 2018-07-16    12:40:08 21 km al SUROESTE de COYUCA DE BENITEZ, GRO: 16.86°, -100.21° 3 km
3.7 2018-07-16    12:33:17 2 km al NORESTE de TAMAZULA, JAL: 19.68°, -103.24° 11 km
3.5 2018-07-16    12:32:54 118 km al SUROESTE de TONALA, CHIS: 15.11°, -94.20° 16 km
3.4 2018-07-16    12:03:52 19 km al SUROESTE de HUIXTLA, CHIS: 14.99°, -92.56° 101 km
3.4 2018-07-16    11:46:39 22 km al OESTE de RIO GRANDE, OAX: 16.04°, -97.63° 12 km
3.6 2018-07-16    11:43:31 29 km al NORESTE de RIO GRANDE, OAX: 16.20°, -97.25° 4 km
3.6 2018-07-16    11:42:06 13 km al NORESTE de S BLAS ATEMPA, OAX: 16.42°, -95.15° 75 km
3.8 2018-07-16    11:24:48 21 km al SUR de SALINA CRUZ, OAX: 16.00°, -95.24° 82 km
3.6 2018-07-16    11:15:43 12 km al SUROESTE de JUCHITAN DE ZARAGOZA, OAX: 16.39°, -95.12° 79 km
3.2 2018-07-16    10:52:11 10 km al SURESTE de PINOTEPA NACIONAL, OAX: 16.26°, -98.02° 10 km
3.3 2018-07-16    10:34:25 21 km al OESTE de PINOTEPA NACIONAL, OAX: 16.35°, -98.25° 2 km
3.5 2018-07-16    10:25:21 1 km al ESTE de COATZACOALCOS, VER: 18.14°, -94.42° 16 km
3.6 2018-07-16    10:07:14 17 km al SUROESTE de SALINA CRUZ, OAX: 16.12°, -95.34° 56 km
3.8 2018-07-16    09:39:46 33 km al NORESTE de UNION HIDALGO, OAX: 16.70°, -94.62° 112 km
3.9 2018-07-16    09:24:04 87 km al SURESTE de SALINA CRUZ, OAX: 15.48°, -94.83° 16 km
3.9 2018-07-16    08:57:24 102 km al SURESTE de SALINA CRUZ, OAX: 15.35°, -94.79° 18 km
4.1 2018-07-16    08:48:07 65 km al SURESTE de SALINA CRUZ, OAX: 15.62°, -95.03° 16 km
3.9 2018-07-16    08:22:30 8 km al SUROESTE de MAPASTEPEC, CHIS: 15.38°, -92.94° 109 km
3.9 2018-07-16    08:12:15 11 km al OESTE de JUCHITAN DE ZARAGOZA, OAX: 16.42°, -95.12° 83 km
3.4 2018-07-16    07:52:41 36 km al SURESTE de PINOTEPA NACIONAL, OAX: 16.11°, -97.81° 14 km
3.7 2018-07-16    07:41:43 46 km al SUR de ZIHUATANEJO, GRO: 17.23°, -101.62° 15 km
3.7 2018-07-16    07:07:06 25 km al NORTE de UNION HIDALGO, OAX: 16.69°, -94.79° 52 km
3.9 2018-07-16    06:59:01 107 km al SURESTE de SALINA CRUZ, OAX: 15.37°, -94.65° 13 km
3.8 2018-07-16    06:56:32 41 km al NOROESTE de MATIAS ROMERO, OAX: 16.98°, -95.41° 44 km
3.6 2018-07-16    06:42:56 18 km al SURESTE de SAN MARCOS, GRO: 16.73°, -99.23° 37 km
3.9 2018-07-16    06:33:36 24 km al OESTE de SALINA CRUZ, OAX: 16.17°, -95.42° 29 km
3.0 2018-07-16    06:33:26 33 km al SURESTE de PINOTEPA NACIONAL, OAX: 16.13°, -97.84° 29 km
4.1 2018-07-16    06:10:12 48 km al SUR de SAYULA DE ALEMAN, VER: 17.46°, -94.85° 139 km
3.4 2018-07-16    05:56:10 10 km al SURESTE de PINOTEPA NACIONAL, OAX: 16.31°, -97.96° 4 km
3.8 2018-07-16    05:15:49 75 km al SUROESTE de PINOTEPA NACIONAL, OAX: 15.84°, -98.52° 16 km
3.6 2018-07-16    05:07:31 31 km al ESTE de PINOTEPA NACIONAL, OAX: 16.34°, -97.76° 15 km
3.2 2018-07-16    05:01:57 17 km al SUROESTE de PINOTEPA NACIONAL, OAX: 16.22°, -98.15° 15 km
3.8 2018-07-16    04:37:07 92 km al SURESTE de SALINA CRUZ, OAX: 15.48°, -94.72° 18 km
3.7 2018-07-16    04:06:24 34 km al OESTE de TEHUANTEPEC, OAX: 16.25°, -95.55° 32 km
3.8 2018-07-16    03:47:48 81 km al SURESTE de SALINA CRUZ, OAX: 15.54°, -94.84° 16 km
3.8 2018-07-16    03:24:08 92 km al SUROESTE de PIJIJIAPAN, CHIS: 15.26°, -93.95° 47 km
3.8 2018-07-16    02:46:16 23 km al NORESTE de CD IXTEPEC, OAX: 16.67°, -94.92° 30 km
3.9 2018-07-16    02:45:14 59 km al SUROESTE de ARRIAGA , CHIS: 15.85°, -94.28° 88 km
3.6 2018-07-16    02:43:49 11 km al OESTE de JUCHITAN DE ZARAGOZA, OAX: 16.43°, -95.12° 48 km
3.7 2018-07-16    02:34:26 23 km al ESTE de UNION HIDALGO, OAX: 16.51°, -94.61° 100 km
3.7 2018-07-16    02:24:55 33 km al NOROESTE de COQUIMATLAN, COL: 19.33°, -104.09° 7 km
3.7 2018-07-16    02:14:40 43 km al SURESTE de SAN MARCOS, GRO: 16.51°, -99.11° 7 km
3.6 2018-07-16    02:11:56 26 km al SUR de SALINA CRUZ, OAX: 15.95°, -95.17° 40 km
2.2 2018-07-16    01:34:14 4 km al NOROESTE de LA MAGDALENA C, CDMX: 19.37°, -99.22° 2 km
1.9 2018-07-16    01:23:50 4 km al NOROESTE de MIGUEL HIDALGO, CDMX: 19.44°, -99.22° 2 km
3.3 2018-07-16    00:14:56 15 km al SUROESTE de OMETEPEC, GRO: 16.57°, -98.48° 3 km

Si deseas más información, consulta nuestro Catálogo de sismos

Sismo de magnitud menor de 4.0

Sismo de magnitud entre 4.0 y 5.9

Sismo de magnitud igual o mayor de 6.0